Penetanguishene, Canada
Current Conditions -  °F | °C
As of 11:00 PM on Saturday 20 Dec 2014 (Local Time) from CYQA Reporting Station
Overcast Overcast  
Wind Chill: -5°   Ceiling: 7500
Heat Index: -5°   Visibility: 9mi
Dew Point: -6°   Wind: 0mph
Humidity: 93%   Direction: NA
Pressure: 30.24"   Gusts: NA
Location:  44.77°N, 79.93°W
Report Text: CYQA 210400Z AUTO 00000KT 9SM OVC075 M05/M06 A3024 RMK SLP257
Loading
Personal Weather Stations






























Interactive Weather Map New forecast layout! Learn more

10-Day Weather Forecast

Advertisements
Track Severe Weather on mobile